Terminal Aerodrome Forecast
Issued by NWS

Home | Current Version | Previous Version | Graphics & Text | Print | Product List | Glossary On
Versions: 1 2 3 4 5 6 7 8 9 10 11
198
FTUS43 KMPX 211120
TAFRNH
TAF
KRNH 211120Z 2112/2212 VRB03KT P6SM SCT040
     FM211600 35008KT P6SM FEW040
     FM220100 02003KT P6SM SKC
     FM220500 00000KT P6SM SKC=

USA.gov is the U.S. government's official web portal to all federal, state and local government web resources and services.